Time;durP1;ratioP1;P1;durP2;ratioP2;P2;SDS_P1;SDS_P2;PMS_P1;PMS_P2;Temp;Humidity;BMP_temperature;BMP_pressure;BME280_temperature;BME280_humidity;BME280_pressure;Samples;Min_cycle;Max_cycle;Signal;HPM_P1;HPM_P2
2022/11/12 00:01:01;;;;;;;5.25;3.67;;;;;;;6.16;100.00;102504.69;5032140;28;20136;-77
2022/11/12 00:03:28;;;;;;;8.65;4.43;;;;;;;6.16;100.00;102504.69;5030342;28;20049;-77
2022/11/12 00:05:57;;;;;;;7.38;4.07;;;;;;;6.14;100.00;102506.34;5030443;28;20055;-79
2022/11/12 00:08:25;;;;;;;7.25;4.40;;;;;;;6.08;100.00;102506.97;5030929;28;20041;-77
2022/11/12 00:10:51;;;;;;;6.10;4.00;;;;;;;6.05;100.00;102504.28;5036396;28;20049;-80
2022/11/12 00:13:18;;;;;;;6.80;3.63;;;;;;;6.01;100.00;102502.38;5039946;28;21011;-76
2022/11/12 00:15:46;;;;;;;9.15;3.90;;;;;;;6.00;100.00;102510.09;5031152;28;20455;-76
2022/11/12 00:18:13;;;;;;;6.72;4.25;;;;;;;5.98;100.00;102510.03;5031856;28;20114;-78
2022/11/12 00:20:41;;;;;;;6.15;3.95;;;;;;;5.96;100.00;102516.88;5038136;28;20043;-80
2022/11/12 00:23:08;;;;;;;6.20;4.32;;;;;;;5.92;100.00;102510.66;5036018;28;20045;-76
2022/11/12 00:25:35;;;;;;;5.55;4.10;;;;;;;5.91;100.00;102513.19;5012551;28;20101;-77
2022/11/12 00:28:08;;;;;;;4.57;3.38;;;;;;;5.89;100.00;102512.25;5027740;28;20046;-79
2022/11/12 00:30:38;;;;;;;5.72;3.45;;;;;;;5.85;100.00;102516.41;5023183;28;20046;-75
2022/11/12 00:33:05;;;;;;;7.28;4.07;;;;;;;5.82;100.00;102515.44;5024480;28;20503;-77
2022/11/12 00:35:33;;;;;;;6.85;3.42;;;;;;;5.75;100.00;102516.88;5014638;28;20192;-81
2022/11/12 00:38:00;;;;;;;4.07;3.47;;;;;;;5.69;100.00;102508.84;5016493;28;20123;-77
2022/11/12 00:40:27;;;;;;;5.43;3.63;;;;;;;5.69;100.00;102514.03;5028107;28;20468;-76
2022/11/12 00:42:54;;;;;;;6.90;4.28;;;;;;;5.69;100.00;102514.91;5014512;28;20048;-77
2022/11/12 00:45:21;;;;;;;5.72;3.20;;;;;;;5.69;100.00;102517.50;5028948;28;20045;-78
2022/11/12 00:47:48;;;;;;;7.35;3.75;;;;;;;5.70;100.00;102515.81;5024679;28;20038;-76
2022/11/12 00:50:16;;;;;;;5.40;3.58;;;;;;;5.69;100.00;102517.50;5026287;28;20052;-76
2022/11/12 00:52:43;;;;;;;7.93;4.03;;;;;;;5.65;100.00;102520.81;5037199;28;20052;-75
2022/11/12 00:55:09;;;;;;;4.78;3.25;;;;;;;5.66;100.00;102525.19;5048113;28;20041;-76
2022/11/12 00:57:36;;;;;;;5.38;4.07;;;;;;;5.67;100.00;102526.97;5029370;28;20976;-78
2022/11/12 01:00:07;;;;;;;6.03;4.10;;;;;;;5.65;100.00;102526.00;5032190;28;20036;-77
2022/11/12 01:02:34;;;;;;;8.15;4.60;;;;;;;5.65;100.00;102522.53;5034738;28;20041;-77
2022/11/12 01:05:00;;;;;;;5.32;4.18;;;;;;;5.63;100.00;102522.44;5056672;28;20044;-76
2022/11/12 01:07:27;;;;;;;4.93;4.00;;;;;;;5.57;100.00;102517.91;5036058;28;20121;-77
2022/11/12 01:09:54;;;;;;;7.18;4.53;;;;;;;5.55;100.00;102523.84;5029726;28;20044;-77
2022/11/12 01:12:20;;;;;;;6.40;3.83;;;;;;;5.51;100.00;102516.75;5030557;28;20053;-78
2022/11/12 01:14:47;;;;;;;6.53;3.45;;;;;;;5.48;100.00;102520.09;5031226;28;20073;-76
2022/11/12 01:17:13;;;;;;;5.55;3.78;;;;;;;5.46;100.00;102520.06;5024179;28;20045;-76
2022/11/12 01:19:40;;;;;;;3.25;2.95;;;;;;;5.49;100.00;102513.19;5027637;28;20057;-78
2022/11/12 01:22:06;;;;;;;6.15;3.03;;;;;;;5.48;100.00;102514.91;5037318;28;20562;-76
2022/11/12 01:24:33;;;;;;;5.22;3.15;;;;;;;5.47;100.00;102520.94;5047933;28;20522;-79
2022/11/12 01:26:59;;;;;;;6.35;3.28;;;;;;;5.49;100.00;102513.19;5045950;28;20042;-80
2022/11/12 01:29:26;;;;;;;4.40;2.85;;;;;;;5.48;100.00;102512.31;5010717;28;20072;-76
2022/11/12 01:31:52;;;;;;;4.43;2.75;;;;;;;5.48;100.00;102512.31;5027446;28;20641;-78
2022/11/12 01:34:19;;;;;;;7.70;3.03;;;;;;;5.51;100.00;102522.81;5040556;28;20143;-80
2022/11/12 01:36:46;;;;;;;3.75;3.40;;;;;;;5.55;100.00;102523.84;5036395;28;20053;-76
2022/11/12 01:39:12;;;;;;;4.75;2.25;;;;;;;5.54;100.00;102519.47;5039139;28;20501;-76
2022/11/12 01:41:41;;;;;;;6.45;3.25;;;;;;;5.52;100.00;102519.41;5015023;28;20059;-76
2022/11/12 01:44:20;;;;;;;3.10;2.40;;;;;;;5.53;100.00;102526.38;5030990;28;20492;-76
2022/11/12 01:46:57;;;;;;;5.05;3.33;;;;;;;5.53;100.00;102525.47;5029676;28;20045;-76
2022/11/12 01:50:02;;;;;;;3.78;2.97;;;;;;;5.47;100.00;102532.22;5029531;28;20048;-77
2022/11/12 01:52:42;;;;;;;5.15;2.80;;;;;;;5.43;100.00;102529.41;5016689;28;20053;-83
2022/11/12 01:55:16;;;;;;;5.18;3.15;;;;;;;5.36;100.00;102530.88;5034439;28;20045;-76
2022/11/12 01:57:49;;;;;;;3.20;2.92;;;;;;;5.35;100.00;102528.22;5013928;28;20448;-77
2022/11/12 02:00:17;;;;;;;6.32;3.20;;;;;;;5.35;100.00;102531.69;5034808;28;20087;-82
2022/11/12 02:02:52;;;;;;;5.22;3.05;;;;;;;5.32;100.00;102534.16;5030804;28;20050;-76
2022/11/12 02:05:20;;;;;;;4.35;3.10;;;;;;;5.29;100.00;102537.50;5041466;28;20049;-76
2022/11/12 02:07:48;;;;;;;3.67;3.15;;;;;;;5.29;100.00;102528.81;5040937;28;20702;-76
2022/11/12 02:10:15;;;;;;;5.03;3.00;;;;;;;5.30;100.00;102531.47;5030959;28;20722;-76
2022/11/12 02:15:27;;;;;;;6.82;3.63;;;;;;;5.31;100.00;102532.38;5045152;28;20033;-77
2022/11/12 02:17:54;;;;;;;5.38;3.10;;;;;;;5.34;100.00;102532.50;5032303;28;20046;-78
2022/11/12 02:20:21;;;;;;;6.80;2.60;;;;;;;5.37;100.00;102530.06;5039279;28;20148;-76
2022/11/12 02:22:48;;;;;;;3.25;2.95;;;;;;;5.40;100.00;102537.09;5030432;28;20857;-76
2022/11/12 02:25:20;;;;;;;7.90;3.58;;;;;;;5.40;100.00;102537.09;5036009;28;20072;-78
2022/11/12 02:27:50;;;;;;;4.20;3.03;;;;;;;5.42;100.00;102525.94;5029418;28;20452;-80
2022/11/12 02:30:20;;;;;;;4.53;2.88;;;;;;;5.43;100.00;102527.69;5030326;28;20049;-77
2022/11/12 02:32:46;;;;;;;9.73;3.15;;;;;;;5.40;100.00;102537.09;5038938;28;20041;-75
2022/11/12 02:35:13;;;;;;;5.68;2.83;;;;;;;5.35;100.00;102528.22;5042498;28;20073;-80
2022/11/12 02:37:39;;;;;;;5.25;3.05;;;;;;;5.34;100.00;102526.44;5028595;28;20042;-75
2022/11/12 02:40:07;;;;;;;3.20;2.90;;;;;;;5.35;100.00;102528.22;5004964;28;20045;-76
2022/11/12 02:42:34;;;;;;;4.28;2.63;;;;;;;5.31;100.00;102532.38;5030532;28;20504;-76
2022/11/12 02:45:00;;;;;;;3.65;2.65;;;;;;;5.33;100.00;102527.25;5031447;28;20087;-76
2022/11/12 02:47:27;;;;;;;8.10;2.92;;;;;;;5.28;100.00;102532.25;5032797;28;20044;-76
2022/11/12 02:49:53;;;;;;;7.60;3.53;;;;;;;5.30;100.00;102535.78;5029873;28;20045;-75
2022/11/12 02:52:23;;;;;;;3.35;2.55;;;;;;;5.34;100.00;102529.91;5031125;28;20510;-76
2022/11/12 02:54:49;;;;;;;6.32;2.35;;;;;;;5.32;100.00;102533.25;5046987;28;20049;-76
2022/11/12 02:57:16;;;;;;;4.35;3.25;;;;;;;5.30;100.00;102534.06;5032579;28;20047;-76
2022/11/12 02:59:42;;;;;;;3.30;2.40;;;;;;;5.26;100.00;102521.78;5054381;28;20126;-77
2022/11/12 03:02:09;;;;;;;4.03;3.45;;;;;;;5.23;100.00;102525.97;5038488;28;20048;-76
2022/11/12 03:04:35;;;;;;;4.47;3.25;;;;;;;5.23;100.00;102523.38;5024898;28;20048;-75
2022/11/12 03:07:02;;;;;;;5.57;4.25;;;;;;;5.22;100.00;102532.00;5029945;28;20071;-76
2022/11/12 03:09:28;;;;;;;3.75;2.92;;;;;;;5.20;100.00;102534.53;5046295;28;20080;-83
2022/11/12 03:11:55;;;;;;;4.20;2.60;;;;;;;5.15;100.00;102525.66;5046127;28;20049;-76
2022/11/12 03:14:21;;;;;;;4.10;2.90;;;;;;;5.16;100.00;102527.41;5028062;28;20096;-76
2022/11/12 03:16:48;;;;;;;8.38;4.38;;;;;;;5.14;100.00;102514.34;5030336;28;20383;-75
2022/11/12 03:19:14;;;;;;;5.45;3.17;;;;;;;5.11;100.00;102511.63;5038688;28;20045;-77
2022/11/12 03:21:41;;;;;;;3.95;2.70;;;;;;;5.10;100.00;102520.25;5030463;28;20069;-76
2022/11/12 03:24:08;;;;;;;3.63;2.58;;;;;;;5.10;100.00;102522.84;5014432;28;20095;-77
2022/11/12 03:26:34;;;;;;;5.80;3.38;;;;;;;5.12;100.00;102521.22;5043135;28;20038;-76
2022/11/12 03:29:01;;;;;;;6.10;3.35;;;;;;;5.12;100.00;102522.91;5043301;28;20045;-76
2022/11/12 03:31:27;;;;;;;6.05;3.38;;;;;;;5.09;100.00;102523.66;5030999;28;20134;-75
2022/11/12 03:33:54;;;;;;;5.13;2.45;;;;;;;5.01;100.00;102527.63;5031287;28;20037;-76
2022/11/12 03:36:20;;;;;;;3.70;3.20;;;;;;;4.99;100.00;102529.25;5031411;28;20045;-76
2022/11/12 03:38:47;;;;;;;6.10;3.72;;;;;;;4.96;100.00;102532.59;5031336;28;20046;-75
2022/11/12 03:41:14;;;;;;;3.55;2.78;;;;;;;4.96;100.00;102534.31;5033462;28;20060;-76
2022/11/12 03:43:40;;;;;;;3.67;3.03;;;;;;;4.92;100.00;102533.28;5049669;28;20045;-76
2022/11/12 03:46:07;;;;;;;7.45;3.78;;;;;;;4.95;100.00;102532.53;5034708;28;20545;-76
2022/11/12 03:48:33;;;;;;;7.60;3.38;;;;;;;4.95;100.00;102538.63;5040176;28;20045;-77
2022/11/12 03:51:00;;;;;;;5.80;2.50;;;;;;;4.91;100.00;102534.09;5035434;28;20065;-76
2022/11/12 03:53:27;;;;;;;3.47;2.83;;;;;;;4.89;100.00;102522.78;5039496;28;20073;-77
2022/11/12 03:55:54;;;;;;;2.88;2.65;;;;;;;4.87;100.00;102519.22;5056462;28;20093;-76
2022/11/12 03:58:20;;;;;;;5.55;3.25;;;;;;;4.86;100.00;102517.44;5050459;28;20114;-77
2022/11/12 04:00:47;;;;;;;3.10;2.70;;;;;;;4.85;100.00;102520.88;5036351;28;20112;-77
2022/11/12 04:03:13;;;;;;;5.20;3.25;;;;;;;4.80;100.00;102519.78;5037602;28;20045;-76
2022/11/12 04:08:36;;;;;;;;;;;;;;;4.74;100.00;102527.28;5033563;28;20621;-76
2022/11/12 04:11:13;;;;;;;4.57;3.00;;;;;;;4.75;100.00;102526.47;5032484;28;19929;-80
2022/11/12 04:13:41;;;;;;;6.78;3.45;;;;;;;4.74;100.00;102519.50;5049954;28;20446;-76
2022/11/12 04:21:54;;;;;;;4.45;2.65;;;;;;;4.64;100.00;102520.78;5032662;28;20042;-79
2022/11/12 04:27:24;;;;;;;5.93;3.60;;;;;;;4.59;100.00;102522.31;5025076;28;20046;-80
2022/11/12 04:32:41;;;;;;;3.35;3.05;;;;;;;4.57;100.00;102516.13;5043045;28;20257;-77
2022/11/12 04:35:09;;;;;;;5.50;2.92;;;;;;;4.56;100.00;102515.25;5013064;28;20128;-80
2022/11/12 04:37:46;;;;;;;4.55;2.75;;;;;;;4.55;100.00;102513.47;5029030;28;20044;-78
2022/11/12 04:45:58;;;;;;;6.97;3.40;;;;;;;4.49;100.00;102515.78;5035030;28;20105;-77
2022/11/12 04:48:26;;;;;;;5.93;4.15;;;;;;;4.51;100.00;102515.84;5030456;28;20492;-76
2022/11/12 04:51:00;;;;;;;6.57;3.50;;;;;;;4.52;100.00;102517.63;5030291;28;20051;-78
2022/11/12 04:53:31;;;;;;;5.40;3.60;;;;;;;4.52;100.00;102515.03;5030774;28;20048;-75
2022/11/12 04:55:59;;;;;;;5.78;3.40;;;;;;;4.51;100.00;102508.97;5034999;28;20041;-76
2022/11/12 04:58:29;;;;;;;6.03;3.30;;;;;;;4.49;100.00;102508.00;5030673;28;20045;-79
2022/11/12 05:00:56;;;;;;;5.30;3.65;;;;;;;4.46;100.00;102511.34;5032808;28;20483;-76
2022/11/12 05:03:22;;;;;;;8.18;4.93;;;;;;;4.43;100.00;102520.69;5031537;28;20502;-76
2022/11/12 05:05:49;;;;;;;9.07;4.13;;;;;;;4.42;100.00;102516.31;5032559;28;20603;-77
2022/11/12 05:08:16;;;;;;;5.72;3.47;;;;;;;4.42;100.00;102517.22;5030450;28;20127;-82
2022/11/12 05:10:42;;;;;;;4.50;3.63;;;;;;;4.47;100.00;102522.59;5032979;28;20318;-77
2022/11/12 05:13:09;;;;;;;6.80;4.32;;;;;;;4.49;100.00;102522.69;5029654;28;20049;-76
2022/11/12 05:15:35;;;;;;;4.93;2.97;;;;;;;4.49;100.00;102514.91;5038269;28;20045;-76
2022/11/12 05:18:01;;;;;;;4.10;3.38;;;;;;;4.51;100.00;102514.16;5033591;28;20041;-77
2022/11/12 05:20:31;;;;;;;5.35;3.08;;;;;;;4.50;100.00;102519.25;5046706;28;20037;-76
2022/11/12 05:22:57;;;;;;;5.20;2.90;;;;;;;4.51;100.00;102508.06;5028148;28;20516;-83
2022/11/12 05:25:24;;;;;;;3.92;3.50;;;;;;;4.51;100.00;102513.25;5030457;28;20053;-75
2022/11/12 05:27:50;;;;;;;3.58;2.92;;;;;;;4.53;100.00;102512.50;5046727;28;20072;-77
2022/11/12 05:30:22;;;;;;;6.22;3.75;;;;;;;4.50;100.00;102520.16;5014715;28;20799;-80
2022/11/12 05:32:49;;;;;;;6.80;2.72;;;;;;;4.48;100.00;102524.38;5030039;28;20053;-76
2022/11/12 05:35:15;;;;;;;5.97;4.13;;;;;;;4.46;100.00;102524.31;5036691;28;20076;-80
2022/11/12 05:37:43;;;;;;;4.18;3.45;;;;;;;4.48;100.00;102516.59;5045655;28;20484;-76
2022/11/12 05:40:10;;;;;;;6.10;3.33;;;;;;;4.52;100.00;102507.25;5013267;28;20053;-80
2022/11/12 05:42:38;;;;;;;6.35;3.33;;;;;;;4.53;100.00;102515.09;5043015;28;20072;-77
2022/11/12 05:45:06;;;;;;;4.97;3.10;;;;;;;4.51;100.00;102515.84;5008713;28;20038;-76
2022/11/12 05:47:33;;;;;;;6.80;3.13;;;;;;;4.45;100.00;102519.94;5024969;28;20501;-77
2022/11/12 05:49:59;;;;;;;4.03;3.63;;;;;;;4.44;100.00;102518.16;5016334;28;20048;-76
2022/11/12 05:52:26;;;;;;;4.47;3.60;;;;;;;4.47;100.00;102515.72;5038062;28;20041;-76
2022/11/12 05:54:52;;;;;;;11.65;4.03;;;;;;;4.51;100.00;102516.75;5051029;28;20041;-77
2022/11/12 05:57:19;;;;;;;9.00;3.75;;;;;;;4.52;100.00;102515.91;5031764;28;20049;-76
2022/11/12 05:59:45;;;;;;;9.63;4.72;;;;;;;4.50;100.00;102516.66;5035962;28;20060;-76
2022/11/12 06:02:12;;;;;;;8.50;4.55;;;;;;;4.47;100.00;102509.63;5027420;28;20411;-78
2022/11/12 06:04:38;;;;;;;6.00;3.22;;;;;;;4.46;100.00;102513.06;5033555;28;20128;-75
2022/11/12 06:07:04;;;;;;;6.78;3.67;;;;;;;4.46;100.00;102513.94;5033537;28;20037;-76
2022/11/12 06:09:31;;;;;;;5.05;3.35;;;;;;;4.44;100.00;102509.50;5049094;28;20053;-76
2022/11/12 06:11:57;;;;;;;3.60;3.28;;;;;;;4.43;100.00;102505.13;5044655;28;20059;-77
2022/11/12 06:14:24;;;;;;;5.50;3.65;;;;;;;4.42;100.00;102517.22;5029334;28;20056;-76
2022/11/12 06:16:50;;;;;;;3.75;3.08;;;;;;;4.42;100.00;102506.84;5032719;28;20826;-78
2022/11/12 06:19:17;;;;;;;5.20;2.97;;;;;;;4.43;100.00;102505.13;5025763;28;20042;-76
2022/11/12 06:21:43;;;;;;;4.32;3.10;;;;;;;4.40;100.00;102511.06;5029390;28;20507;-77
2022/11/12 06:24:10;;;;;;;4.63;3.63;;;;;;;4.35;100.00;102509.94;5028463;28;20065;-77
2022/11/12 06:26:37;;;;;;;6.25;3.70;;;;;;;4.28;100.00;102516.56;5026640;28;20172;-75
2022/11/12 06:29:04;;;;;;;4.47;3.17;;;;;;;4.26;100.00;102513.03;5030724;28;20060;-76
2022/11/12 06:31:30;;;;;;;5.47;3.40;;;;;;;4.24;100.00;102518.94;5046842;28;20593;-79
2022/11/12 06:33:57;;;;;;;5.28;3.90;;;;;;;4.25;100.00;102515.50;5030692;28;20041;-78
2022/11/12 06:36:23;;;;;;;8.38;4.18;;;;;;;4.26;100.00;102520.81;5029213;28;20046;-77
2022/11/12 06:38:50;;;;;;;6.10;3.08;;;;;;;4.26;100.00;102522.47;5025072;28;20465;-76
2022/11/12 06:41:16;;;;;;;5.55;4.20;;;;;;;4.26;100.00;102519.88;5030276;28;20144;-78
2022/11/12 06:43:43;;;;;;;5.20;3.55;;;;;;;4.28;100.00;102529.53;5026795;28;20571;-78
2022/11/12 06:46:15;;;;;;;4.47;3.67;;;;;;;4.35;100.00;102533.28;5026794;28;20049;-77
2022/11/12 06:48:42;;;;;;;5.55;4.03;;;;;;;4.39;100.00;102532.59;5008882;28;20049;-76
2022/11/12 06:51:20;;;;;;;4.97;3.28;;;;;;;4.44;100.00;102536.31;5030102;28;20034;-77
2022/11/12 06:53:48;;;;;;;8.88;5.57;;;;;;;4.48;100.00;102532.16;5029420;28;20040;-76
2022/11/12 06:56:15;;;;;;;10.65;3.60;;;;;;;4.51;100.00;102534.00;5033058;28;20045;-78
2022/11/12 06:58:42;;;;;;;6.43;3.28;;;;;;;4.53;100.00;102534.97;5027755;28;20057;-79
2022/11/12 07:01:14;;;;;;;5.97;4.00;;;;;;;4.60;100.00;102534.41;5025517;28;20190;-78
2022/11/12 07:03:43;;;;;;;7.35;4.50;;;;;;;4.66;100.00;102526.06;5011338;28;20057;-77
2022/11/12 07:06:17;;;;;;;4.53;3.50;;;;;;;4.72;100.00;102536.69;5027147;28;20050;-78
2022/11/12 07:08:44;;;;;;;7.32;3.55;;;;;;;4.77;100.00;102551.66;5026115;28;20046;-85
2022/11/12 07:11:11;;;;;;;7.32;3.47;;;;;;;4.85;100.00;102551.09;5029201;28;20042;-78
2022/11/12 07:13:38;;;;;;;4.72;3.58;;;;;;;4.92;100.00;102550.59;5029031;28;20771;-77
2022/11/12 07:16:07;;;;;;;4.50;3.00;;;;;;;4.98;100.00;102550.88;5048300;28;20045;-78
2022/11/12 07:18:35;;;;;;;5.32;3.75;;;;;;;5.04;100.00;102548.50;5028728;28;20048;-76
2022/11/12 07:21:08;;;;;;;13.82;8.30;;;;;;;5.10;100.00;102560.91;5028391;28;20037;-77
2022/11/12 07:23:36;;;;;;;10.27;6.95;;;;;;;5.15;100.00;102577.56;5041084;28;20136;-77
2022/11/12 07:26:23;;;;;;;10.02;5.45;;;;;;;5.21;100.00;102570.03;5023489;28;20572;-79
2022/11/12 07:28:55;;;;;;;8.13;4.53;;;;;;;5.32;100.00;102572.22;5000640;28;20045;-77
2022/11/12 07:31:22;;;;;;;6.55;4.53;;;;;;;5.39;100.00;102567.34;5055074;28;20124;-76
2022/11/12 07:33:49;;;;;;;8.27;4.72;;;;;;;5.47;100.00;102576.38;5012583;28;20041;-81
2022/11/12 07:36:19;;;;;;;7.78;4.72;;;;;;;5.56;100.00;102562.88;5025871;28;20049;-81
2022/11/12 07:38:46;;;;;;;8.43;4.30;;;;;;;5.65;100.00;102564.09;5009360;28;20045;-77
2022/11/12 07:41:22;;;;;;;5.20;3.47;;;;;;;5.73;100.00;102565.31;5031663;28;20073;-77
2022/11/12 07:43:51;;;;;;;4.72;3.60;;;;;;;5.77;100.00;102557.69;5030235;28;20050;-78
2022/11/12 07:46:25;;;;;;;4.57;3.97;;;;;;;5.84;100.00;102557.94;5034387;28;20041;-76
2022/11/12 07:48:53;;;;;;;5.07;3.75;;;;;;;5.90;100.00;102559.09;5031304;28;20077;-75
2022/11/12 07:51:25;;;;;;;3.38;3.08;;;;;;;5.96;100.00;102554.16;5033887;28;20067;-76
2022/11/12 07:53:58;;;;;;;5.13;3.40;;;;;;;6.06;100.00;102555.44;5051129;28;20061;-76
2022/11/12 07:56:28;;;;;;;5.30;3.63;;;;;;;6.15;100.00;102559.22;5050223;28;20042;-78
2022/11/12 07:58:55;;;;;;;8.02;3.38;;;;;;;6.23;100.00;102558.72;5033610;28;20045;-76
2022/11/12 08:01:37;;;;;;;6.20;3.38;;;;;;;6.37;100.00;102563.56;5033326;28;20153;-76
2022/11/12 08:04:08;;;;;;;6.28;4.53;;;;;;;6.48;100.00;102558.78;5035271;28;20033;-78
2022/11/12 08:06:35;;;;;;;4.90;3.38;;;;;;;6.57;100.00;102554.81;5057897;28;20042;-84
2022/11/12 08:09:06;;;;;;;3.50;3.17;;;;;;;6.67;100.00;102557.78;5032882;28;20046;-79
2022/11/12 08:11:33;;;;;;;6.90;3.50;;;;;;;6.77;100.00;102555.56;5032419;28;20052;-80
2022/11/12 08:14:01;;;;;;;5.22;3.40;;;;;;;6.93;100.00;102561.34;5031693;28;20127;-77
2022/11/12 08:16:27;;;;;;;10.80;5.22;;;;;;;7.07;100.00;102569.69;5029382;28;20041;-78
2022/11/12 08:18:54;;;;;;;12.77;7.75;;;;;;;7.22;100.00;102572.84;5030284;28;20082;-78
2022/11/12 08:21:20;;;;;;;6.20;4.13;;;;;;;7.36;100.00;102572.44;5033428;28;20543;-77
2022/11/12 08:23:47;;;;;;;7.57;4.40;;;;;;;7.52;100.00;102566.03;5035384;28;20076;-79
2022/11/12 08:26:18;;;;;;;5.32;3.50;;;;;;;7.67;98.47;102563.94;5018585;28;20140;-76
2022/11/12 08:28:45;;;;;;;7.68;3.20;;;;;;;7.81;97.15;102571.34;5032074;28;20069;-82
2022/11/12 08:31:19;;;;;;;7.40;4.13;;;;;;;7.94;96.25;102577.03;5036960;28;20049;-77
2022/11/12 08:33:46;;;;;;;4.63;2.95;;;;;;;8.06;94.96;102571.31;5002459;28;20136;-78
2022/11/12 08:36:16;;;;;;;3.63;2.97;;;;;;;8.17;94.67;102576.00;5031197;28;20050;-76
2022/11/12 08:38:46;;;;;;;13.30;3.30;;;;;;;8.24;93.03;102571.03;5046629;28;20038;-77
2022/11/12 08:41:16;;;;;;;2.67;2.42;;;;;;;8.32;92.84;102567.75;5035877;28;20046;-76
2022/11/12 08:43:44;;;;;;;4.68;2.55;;;;;;;8.39;91.77;102567.13;5016173;28;20048;-76
2022/11/12 08:46:10;;;;;;;3.95;2.70;;;;;;;8.49;91.29;102564.00;5034222;28;20053;-76
2022/11/12 08:48:38;;;;;;;5.30;3.67;;;;;;;8.58;90.92;102564.25;5025218;28;20033;-77
2022/11/12 08:51:06;;;;;;;3.60;3.30;;;;;;;8.66;90.05;102567.09;5033851;28;20052;-77
2022/11/12 08:53:33;;;;;;;2.60;2.40;;;;;;;8.75;89.44;102564.75;5031323;28;20049;-80
2022/11/12 08:56:00;;;;;;;2.58;2.38;;;;;;;8.83;89.13;102562.38;5018182;28;20046;-78
2022/11/12 08:58:26;;;;;;;4.35;3.08;;;;;;;8.92;88.84;102554.81;5033625;28;20049;-77
2022/11/12 09:00:54;;;;;;;6.88;3.97;;;;;;;9.04;88.41;102562.09;5033051;28;20526;-77
2022/11/12 09:03:24;;;;;;;6.97;5.05;;;;;;;9.16;87.49;102564.16;5016285;28;20060;-77
2022/11/12 09:05:52;;;;;;;4.40;3.63;;;;;;;9.27;87.15;102564.47;5033721;28;20098;-78
2022/11/12 09:08:23;;;;;;;3.70;3.15;;;;;;;9.38;86.38;102565.63;5060880;28;20119;-76
2022/11/12 09:10:51;;;;;;;4.70;3.50;;;;;;;9.52;85.62;102571.22;5029106;28;20401;-82
2022/11/12 09:13:18;;;;;;;3.35;2.70;;;;;;;9.66;84.61;102575.94;5018139;28;20045;-77
2022/11/12 09:15:46;;;;;;;4.10;2.53;;;;;;;9.79;83.20;102574.50;5016894;28;20132;-77
2022/11/12 09:18:18;;;;;;;4.38;2.78;;;;;;;9.91;83.62;102575.72;5056814;28;20042;-76
2022/11/12 09:20:45;;;;;;;2.90;2.70;;;;;;;10.09;83.30;102570.03;5033087;28;20132;-76
2022/11/12 09:23:14;;;;;;;5.90;3.33;;;;;;;10.27;82.67;102571.31;5050306;28;20061;-75
2022/11/12 09:25:42;;;;;;;2.95;2.67;;;;;;;10.37;80.65;102567.22;5029882;28;20033;-76
2022/11/12 09:28:15;;;;;;;4.07;2.88;;;;;;;10.47;81.51;102574.44;5012995;28;20057;-78
2022/11/12 09:30:46;;;;;;;4.37;3.37;;;;;;;10.58;80.85;102572.91;5026121;28;20054;-76
2022/11/12 09:33:26;;;;;;;3.17;2.88;;;;;;;10.61;80.45;102572.09;5028804;28;20379;-82
2022/11/12 09:35:54;;;;;;;6.22;3.42;;;;;;;10.69;80.27;102569.66;5035985;28;20041;-78
2022/11/12 09:38:22;;;;;;;2.47;2.30;;;;;;;10.82;81.02;102570.78;5025390;28;20037;-80
2022/11/12 09:41:17;;;;;;;3.97;2.72;;;;;;;10.90;79.46;102574.47;5031444;28;20052;-80
2022/11/12 09:43:52;;;;;;;5.13;3.95;;;;;;;10.97;78.91;102567.63;5025231;28;20038;-80
2022/11/12 09:46:39;;;;;;;4.38;2.70;;;;;;;11.03;78.79;102565.09;5030231;28;20120;-76
2022/11/12 09:49:25;;;;;;;3.65;2.13;;;;;;;11.09;77.84;102566.13;5029034;28;20041;-77
2022/11/12 09:52:03;;;;;;;2.45;2.25;;;;;;;11.14;77.42;102575.81;5027548;28;20100;-77
2022/11/12 09:54:35;;;;;;;3.65;2.30;;;;;;;11.19;77.58;102569.78;5035494;28;20136;-76
2022/11/12 09:57:02;;;;;;;3.38;2.63;;;;;;;11.24;76.75;102565.53;5030278;28;20079;-80
2022/11/12 09:59:33;;;;;;;4.10;2.47;;;;;;;11.28;76.39;102568.19;5030167;28;20095;-79
2022/11/12 10:02:31;;;;;;;4.18;2.67;;;;;;;11.25;75.02;102564.69;5019628;28;20060;-81
2022/11/12 10:05:36;;;;;;;5.07;2.25;;;;;;;11.24;74.58;102572.53;5038199;28;20042;-77
2022/11/12 10:08:25;;;;;;;4.32;2.75;;;;;;;11.22;75.05;102567.25;5021964;28;20045;-78
2022/11/12 10:11:17;;;;;;;2.78;1.95;;;;;;;11.27;74.30;102577.81;5028878;28;20487;-79
2022/11/12 10:14:40;;;;;;;3.33;2.13;;;;;;;11.35;73.94;102577.97;5029438;28;20045;-81
2022/11/12 10:17:50;;;;;;;3.58;2.08;;;;;;;11.37;72.94;102560.53;5042199;28;20045;-78
2022/11/12 10:20:40;;;;;;;2.17;1.90;;;;;;;11.38;74.26;102563.19;5005452;28;20058;-76
2022/11/12 10:23:19;;;;;;;4.47;2.30;;;;;;;11.43;73.85;102571.09;4976413;28;1014598;-77
2022/11/12 10:25:50;;;;;;;2.42;1.95;;;;;;;11.56;74.29;102573.13;5011986;28;20068;-78
2022/11/12 10:28:38;;;;;;;4.22;2.25;;;;;;;11.73;73.53;102562.00;5023184;28;20039;-79
2022/11/12 10:31:16;;;;;;;3.75;1.95;;;;;;;11.83;73.81;102561.31;5019272;28;20131;-79
2022/11/12 10:33:42;;;;;;;2.28;2.13;;;;;;;11.92;72.13;102563.22;5019981;28;20045;-78
2022/11/12 10:36:32;;;;;;;2.58;1.98;;;;;;;12.05;72.07;102561.69;5017376;28;20049;-76
2022/11/12 10:39:02;;;;;;;2.50;2.30;;;;;;;12.23;72.13;102559.34;5018243;28;20060;-78
2022/11/12 10:41:32;;;;;;;2.38;1.73;;;;;;;12.43;71.06;102557.88;5021094;28;20074;-77
2022/11/12 10:44:05;;;;;;;2.05;1.77;;;;;;;12.60;70.76;102561.59;5040362;28;20049;-77
2022/11/12 10:46:37;;;;;;;3.22;2.13;;;;;;;12.72;69.20;102556.53;5008442;28;20045;-80
2022/11/12 10:49:11;;;;;;;2.35;2.10;;;;;;;12.76;68.48;102561.81;5027258;28;20069;-78
2022/11/12 10:51:38;;;;;;;2.25;2.05;;;;;;;12.77;68.14;102566.22;5023658;28;20547;-80
2022/11/12 10:54:26;;;;;;;4.20;1.52;;;;;;;12.83;67.22;102564.53;5015037;28;20136;-80
2022/11/12 10:56:54;;;;;;;2.17;1.75;;;;;;;12.91;66.25;102548.84;5015542;28;20053;-77
2022/11/12 10:59:23;;;;;;;4.75;1.90;;;;;;;12.98;66.38;102548.03;5031177;28;20056;-82
2022/11/12 11:02:00;;;;;;;1.85;1.70;;;;;;;13.08;65.22;102546.41;4999193;28;20086;-81
2022/11/12 11:04:35;;;;;;;6.22;1.95;;;;;;;13.18;66.03;102550.00;5016559;28;20163;-79
2022/11/12 11:07:15;;;;;;;3.22;1.58;;;;;;;13.27;65.21;102550.13;5019707;28;20088;-79
2022/11/12 11:09:55;;;;;;;2.75;2.13;;;;;;;13.31;63.72;102540.50;5018856;28;20041;-83
2022/11/12 11:12:32;;;;;;;2.13;1.92;;;;;;;13.24;64.85;102531.69;5021846;28;20041;-86
2022/11/12 11:15:21;;;;;;;5.45;1.85;;;;;;;13.33;64.70;102541.41;5029770;28;20060;-78
2022/11/12 11:17:48;;;;;;;2.70;2.28;;;;;;;13.17;65.38;102540.38;5014953;28;20048;-77
2022/11/12 11:20:33;;;;;;;2.78;1.58;;;;;;;13.10;65.99;102549.06;5029372;28;20046;-78
2022/11/12 11:23:22;;;;;;;2.83;1.75;;;;;;;13.00;66.40;102538.44;5014089;28;20718;-79
2022/11/12 11:25:53;;;;;;;2.08;1.83;;;;;;;12.95;67.18;102526.13;5025673;28;20079;-80
2022/11/12 11:29:14;;;;;;;1.80;1.70;;;;;;;13.04;67.01;102521.84;5021611;28;20563;-79
2022/11/12 11:32:13;;;;;;;2.97;2.25;;;;;;;13.10;67.05;102520.13;5011676;28;20158;-80
2022/11/12 11:35:18;;;;;;;4.63;2.25;;;;;;;13.12;66.82;102521.06;5016579;28;20053;-76
2022/11/12 11:38:19;;;;;;;2.45;2.20;;;;;;;13.11;67.48;102517.53;5021956;28;20050;-79
2022/11/12 11:41:29;;;;;;;4.07;2.20;;;;;;;13.13;67.35;102523.69;5025633;28;20391;-76
2022/11/12 11:44:25;;;;;;;4.07;2.33;;;;;;;13.13;68.10;102513.16;5023073;28;20061;-80
2022/11/12 11:47:33;;;;;;;2.55;2.35;;;;;;;13.20;67.71;102512.34;5036094;28;20048;-78
2022/11/12 11:50:22;;;;;;;4.20;2.30;;;;;;;13.40;67.58;102511.69;5022995;28;20126;-78
2022/11/12 11:53:15;;;;;;;2.63;2.42;;;;;;;13.56;67.28;102510.09;5025966;28;20053;-76
2022/11/12 11:56:04;;;;;;;3.92;3.05;;;;;;;13.70;67.25;102507.56;5001717;28;20057;-80
2022/11/12 11:58:58;;;;;;;3.20;2.90;;;;;;;13.77;66.91;102505.88;5029661;28;20042;-76
2022/11/12 12:01:34;;;;;;;;;;;;;;;13.83;66.69;102500.63;5022810;28;20072;-76
2022/11/12 12:04:15;;;;;;;3.10;2.85;;;;;;;13.91;67.06;102501.59;5023921;28;19924;-77
2022/11/12 12:07:09;;;;;;;3.83;2.83;;;;;;;13.93;66.99;102496.34;5008676;28;20083;-77
2022/11/12 12:09:53;;;;;;;3.33;3.03;;;;;;;14.01;67.17;102499.88;5043527;28;20072;-76